Time;durP1;ratioP1;P1;durP2;ratioP2;P2;SDS_P1;SDS_P2;PMS_P1;PMS_P2;Temp;Humidity;BMP_temperature;BMP_pressure;BME280_temperature;BME280_humidity;BME280_pressure;Samples;Min_cycle;Max_cycle;Signal;HPM_P1;HPM_P2
2022/04/07 00:00:13;;;;;;;8.60;3.10;;;;;;;10.59;53.39;98913.75;3157010;28;20519;-69
2022/04/07 00:01:45;;;;;;;8.75;3.20;;;;;;;10.59;53.63;98920.72;3155067;28;20147;-69
2022/04/07 00:03:16;;;;;;;13.25;3.22;;;;;;;10.59;53.28;98928.53;3152076;28;20441;-69
2022/04/07 00:04:47;;;;;;;7.85;3.22;;;;;;;10.53;53.46;98911.53;3146894;28;20490;-69
2022/04/07 00:06:19;;;;;;;8.52;3.17;;;;;;;10.53;53.40;98915.88;3153209;28;20048;-70
2022/04/07 00:07:52;;;;;;;11.15;3.63;;;;;;;10.53;53.24;98908.91;3156764;28;20097;-71
2022/04/07 00:09:24;;;;;;;8.73;3.45;;;;;;;10.50;53.19;98909.09;3153166;28;20060;-70
2022/04/07 00:10:56;;;;;;;7.95;3.40;;;;;;;10.50;53.03;98906.50;3150092;28;20109;-71
2022/04/07 00:12:29;;;;;;;11.48;3.22;;;;;;;10.48;53.14;98895.34;3146671;28;20056;-70
2022/04/07 00:14:01;;;;;;;5.10;3.22;;;;;;;10.45;53.03;98892.91;3156983;28;20063;-70
2022/04/07 00:15:32;;;;;;;8.43;3.72;;;;;;;10.45;52.92;98895.50;3148980;28;20048;-69
2022/04/07 00:17:05;;;;;;;9.45;3.85;;;;;;;10.10;53.11;98837.69;3156766;28;20087;-70
2022/04/07 00:18:37;;;;;;;10.48;3.45;;;;;;;10.38;53.04;98896.78;3156607;28;20052;-70
2022/04/07 00:20:09;;;;;;;7.88;2.88;;;;;;;10.32;53.06;98889.34;3153625;28;20106;-70
2022/04/07 00:21:46;;;;;;;6.82;3.28;;;;;;;10.22;52.92;98882.03;3147378;28;20097;-71
2022/04/07 00:23:19;;;;;;;8.60;3.28;;;;;;;10.29;52.80;98898.16;3153194;28;20513;-69
2022/04/07 00:24:51;;;;;;;9.02;3.35;;;;;;;10.24;52.68;98895.81;3150935;28;20585;-70
2022/04/07 00:26:23;;;;;;;6.68;3.42;;;;;;;10.29;52.47;98905.13;3149957;28;20052;-69
2022/04/07 00:27:55;;;;;;;11.95;3.75;;;;;;;10.33;52.51;98904.88;3154183;28;20434;-69
2022/04/07 00:29:27;;;;;;;8.10;3.30;;;;;;;10.28;52.15;98895.66;3148581;28;20570;-68
2022/04/07 00:30:58;;;;;;;5.60;3.67;;;;;;;10.27;52.17;98899.19;3156283;28;20388;-68
2022/04/07 00:32:30;;;;;;;7.25;3.58;;;;;;;10.36;52.23;98917.72;3152778;28;20131;-68
2022/04/07 00:34:01;;;;;;;5.38;3.15;;;;;;;10.31;52.26;98911.09;3156161;28;20051;-69
2022/04/07 00:35:34;;;;;;;7.30;3.25;;;;;;;10.33;51.95;98911.84;3153197;28;20052;-70
2022/04/07 00:37:06;;;;;;;6.30;3.90;;;;;;;10.30;52.26;98912.88;3148851;28;20408;-69
2022/04/07 00:38:39;;;;;;;6.03;3.70;;;;;;;10.30;52.12;98891.22;3154479;28;20056;-68
2022/04/07 00:40:12;;;;;;;10.27;3.75;;;;;;;10.26;52.35;98890.50;3149383;28;20049;-68
2022/04/07 00:41:43;;;;;;;10.73;3.95;;;;;;;10.23;52.00;98883.75;3147373;28;20490;-68
2022/04/07 00:43:29;;;;;;;7.22;4.20;;;;;;;10.12;52.11;98865.31;3145498;28;20048;-71
2022/04/07 00:45:01;;;;;;;11.43;4.10;;;;;;;10.14;52.45;98881.63;3146497;28;20103;-68
2022/04/07 00:46:31;;;;;;;5.93;3.95;;;;;;;10.13;52.48;98874.78;3149807;28;20112;-70
2022/04/07 00:48:04;;;;;;;9.90;3.90;;;;;;;10.13;52.28;98874.78;3156175;28;20145;-70
2022/04/07 00:49:35;;;;;;;6.03;3.63;;;;;;;10.11;52.50;98876.63;3148886;28;20052;-70
2022/04/07 00:51:07;;;;;;;6.40;3.60;;;;;;;10.03;52.74;98871.88;3156512;28;20062;-68
2022/04/07 00:52:42;;;;;;;8.38;3.78;;;;;;;10.04;52.67;98883.13;3149765;28;20514;-69
2022/04/07 00:54:16;;;;;;;8.35;4.18;;;;;;;10.02;52.74;98884.97;3155690;28;20138;-68
2022/04/07 00:55:50;;;;;;;14.88;3.90;;;;;;;10.00;52.50;98881.63;3149634;28;20056;-69
2022/04/07 00:57:22;;;;;;;9.32;4.32;;;;;;;10.01;52.46;98883.28;3154531;28;20052;-68
2022/04/07 00:58:55;;;;;;;7.50;3.92;;;;;;;10.05;52.58;98878.75;3156361;28;20164;-68
2022/04/07 01:00:27;;;;;;;6.95;4.22;;;;;;;10.03;52.67;98873.66;3150947;28;20051;-68
2022/04/07 01:01:59;;;;;;;9.07;4.13;;;;;;;9.98;52.58;98873.91;3150946;28;20140;-68
2022/04/07 01:03:31;;;;;;;9.30;3.90;;;;;;;9.98;52.71;98875.66;3153234;28;20102;-69
2022/04/07 01:05:03;;;;;;;8.93;4.05;;;;;;;9.80;52.61;98846.34;3147351;28;20048;-68
2022/04/07 01:06:35;;;;;;;10.13;3.75;;;;;;;9.93;52.82;98865.50;3155856;28;20129;-68
2022/04/07 01:08:08;;;;;;;10.48;4.20;;;;;;;9.94;52.78;98871.56;3155686;28;20108;-69
2022/04/07 01:09:41;;;;;;;11.40;4.00;;;;;;;9.92;52.74;98876.03;3147612;28;20121;-68
2022/04/07 01:11:12;;;;;;;13.10;4.32;;;;;;;9.90;52.54;98873.50;3150185;28;20367;-68
2022/04/07 01:12:44;;;;;;;13.77;4.65;;;;;;;9.94;52.58;98871.56;3151564;28;20067;-69
2022/04/07 01:14:16;;;;;;;9.98;4.35;;;;;;;9.91;52.55;98871.72;3153956;28;20181;-69
2022/04/07 01:15:46;;;;;;;8.77;3.85;;;;;;;9.91;52.75;98866.53;3152858;28;20409;-68
2022/04/07 01:17:20;;;;;;;9.70;4.30;;;;;;;9.95;52.63;98868.03;3151222;28;20052;-69
2022/04/07 01:18:52;;;;;;;9.15;4.15;;;;;;;9.87;52.55;98846.84;3145562;28;20097;-68
2022/04/07 01:20:24;;;;;;;7.75;4.13;;;;;;;9.82;52.49;98835.84;3148718;28;20053;-68
2022/04/07 01:21:56;;;;;;;7.80;4.80;;;;;;;10.01;52.27;98862.47;3154826;28;20056;-68
2022/04/07 01:23:35;;;;;;;7.22;3.67;;;;;;;9.98;52.12;98852.25;3151739;28;20110;-68
2022/04/07 01:25:09;;;;;;;9.38;4.65;;;;;;;10.03;52.20;98866.69;3144024;28;20052;-68
2022/04/07 01:26:43;;;;;;;7.53;4.03;;;;;;;10.02;52.17;98864.16;3150100;28;20052;-68
2022/04/07 01:28:15;;;;;;;10.43;4.10;;;;;;;10.04;52.19;98872.72;3149522;28;20047;-68
2022/04/07 01:29:47;;;;;;;8.07;4.13;;;;;;;10.03;52.14;98861.47;3152905;28;20110;-68
2022/04/07 01:31:19;;;;;;;9.98;4.63;;;;;;;10.07;52.22;98863.91;3157124;28;20044;-70
2022/04/07 01:32:56;;;;;;;11.75;4.22;;;;;;;10.03;52.20;98860.63;3153988;28;20509;-70
2022/04/07 01:34:27;;;;;;;11.73;4.53;;;;;;;9.97;52.54;98856.63;3150684;28;20056;-67
2022/04/07 01:35:59;;;;;;;10.50;4.88;;;;;;;9.96;52.45;98854.09;3156200;28;20048;-70
2022/04/07 01:37:32;;;;;;;9.48;4.53;;;;;;;9.93;52.42;98849.06;3146419;28;20048;-68
2022/04/07 01:39:05;;;;;;;9.88;5.05;;;;;;;9.78;52.72;98836.03;3148255;28;20516;-69
2022/04/07 01:40:39;;;;;;;9.07;4.95;;;;;;;9.82;52.55;98836.72;3151027;28;20059;-70
2022/04/07 01:42:12;;;;;;;8.75;4.00;;;;;;;9.82;52.75;98841.03;3158431;28;20066;-69
2022/04/07 01:43:44;;;;;;;13.23;4.78;;;;;;;9.73;52.84;98827.69;3148297;28;20114;-70
2022/04/07 01:45:16;;;;;;;11.23;4.50;;;;;;;9.73;52.99;98811.22;3146549;28;20117;-70
2022/04/07 01:46:51;;;;;;;13.88;5.55;;;;;;;9.53;53.02;98783.78;3152505;28;20125;-69
2022/04/07 01:48:24;;;;;;;11.68;4.93;;;;;;;9.68;53.15;98801.09;3157575;28;20737;-69
2022/04/07 01:50:01;;;;;;;11.82;5.20;;;;;;;9.63;53.27;98803.09;3157184;28;20165;-70
2022/04/07 01:51:36;;;;;;;10.70;5.15;;;;;;;9.56;53.69;98809.59;3155844;28;20044;-70
2022/04/07 01:53:08;;;;;;;8.68;5.32;;;;;;;9.47;53.87;98810.13;3158605;28;20085;-69
2022/04/07 01:54:42;;;;;;;11.02;4.93;;;;;;;9.45;53.99;98810.19;3158448;28;20052;-69
2022/04/07 01:56:15;;;;;;;;;;;;;;;9.22;54.22;98816.66;3149771;28;20091;-69
2022/04/07 01:57:48;;;;;;;11.25;5.15;;;;;;;9.18;54.41;98793.56;3151917;28;20410;-69
2022/04/07 01:59:21;;;;;;;10.63;5.18;;;;;;;9.20;54.63;98792.56;3149611;28;20491;-69
2022/04/07 02:00:54;;;;;;;10.60;5.30;;;;;;;9.20;54.92;98792.56;3151628;28;20056;-69
2022/04/07 02:02:26;;;;;;;19.98;5.25;;;;;;;9.03;54.90;98772.69;3156376;28;20048;-69
2022/04/07 02:03:58;;;;;;;14.05;5.78;;;;;;;9.16;54.79;98788.44;3158179;28;20546;-69
2022/04/07 02:05:30;;;;;;;10.43;5.43;;;;;;;9.20;54.75;98797.75;3156986;28;20059;-69
2022/04/07 02:07:02;;;;;;;14.88;6.32;;;;;;;9.21;54.71;98804.59;3148076;28;20106;-69
2022/04/07 02:08:33;;;;;;;14.50;5.53;;;;;;;9.23;54.51;98802.78;3157312;28;20059;-69
2022/04/07 02:10:05;;;;;;;9.77;5.47;;;;;;;9.23;54.52;98787.19;3157876;28;20112;-69
2022/04/07 02:11:41;;;;;;;10.20;5.47;;;;;;;9.26;54.63;98791.38;3158371;28;20048;-69
2022/04/07 02:13:14;;;;;;;12.60;6.15;;;;;;;9.27;54.74;98791.28;3157185;28;20361;-69
2022/04/07 02:14:46;;;;;;;12.50;5.50;;;;;;;9.26;54.76;98791.38;3147807;28;20356;-68
2022/04/07 02:16:19;;;;;;;14.15;5.55;;;;;;;9.28;54.77;98779.94;3154621;28;20524;-68
2022/04/07 02:17:50;;;;;;;10.00;5.68;;;;;;;9.29;54.59;98770.41;3157782;28;20048;-68
2022/04/07 02:19:22;;;;;;;9.63;5.72;;;;;;;9.31;54.54;98752.97;3158256;28;20056;-68
2022/04/07 02:20:54;;;;;;;14.20;5.93;;;;;;;9.32;54.64;98752.91;3152080;28;20040;-68
2022/04/07 02:22:28;;;;;;;9.60;5.68;;;;;;;9.26;54.59;98742.84;3157991;28;20075;-68
2022/04/07 02:24:00;;;;;;;10.70;5.50;;;;;;;9.08;54.80;98729.16;3152569;28;20092;-68
2022/04/07 02:25:32;;;;;;;12.30;5.93;;;;;;;9.25;54.90;98754.16;3152208;28;20048;-68
2022/04/07 02:27:05;;;;;;;10.15;5.80;;;;;;;9.15;55.07;98732.22;3152352;28;20491;-68
2022/04/07 02:28:37;;;;;;;;;;;;;;;8.98;55.42;98735.75;3154261;28;20040;-67
2022/04/07 02:30:11;;;;;;;11.85;5.25;;;;;;;9.06;55.71;98732.75;3149123;28;19974;-68
2022/04/07 02:31:43;;;;;;;10.60;5.40;;;;;;;9.06;55.55;98733.56;3150913;28;20476;-69
2022/04/07 02:33:14;;;;;;;11.00;5.70;;;;;;;9.08;55.49;98743.88;3149838;28;20048;-68
2022/04/07 02:34:48;;;;;;;10.45;5.20;;;;;;;9.11;55.44;98756.72;3150526;28;20063;-67
2022/04/07 02:36:19;;;;;;;10.75;5.30;;;;;;;9.12;55.32;98753.19;3145859;28;20127;-67
2022/04/07 02:37:51;;;;;;;11.50;5.38;;;;;;;9.17;55.15;98748.56;3151698;28;20105;-69
2022/04/07 02:39:22;;;;;;;14.18;6.43;;;;;;;9.23;55.17;98742.16;3146115;28;20075;-69
2022/04/07 02:40:54;;;;;;;10.10;5.53;;;;;;;9.22;55.08;98735.31;3151134;28;20063;-69
2022/04/07 02:42:28;;;;;;;11.75;6.13;;;;;;;9.32;54.89;98739.06;3145903;28;20048;-69
2022/04/07 02:44:02;;;;;;;11.77;5.72;;;;;;;9.33;54.67;98736.38;3150924;28;20056;-69
2022/04/07 02:45:34;;;;;;;9.48;5.55;;;;;;;9.34;54.42;98737.19;3151377;28;20523;-69
2022/04/07 02:47:06;;;;;;;9.63;5.32;;;;;;;9.37;54.44;98724.03;3157828;28;20390;-69
2022/04/07 02:48:38;;;;;;;9.05;6.13;;;;;;;9.42;54.23;98731.56;3151856;28;20052;-69
2022/04/07 02:50:10;;;;;;;10.20;5.53;;;;;;;9.41;54.24;98720.34;3147264;28;20053;-69
2022/04/07 02:51:42;;;;;;;9.43;5.47;;;;;;;9.37;54.32;98715.41;3150670;28;20082;-69
2022/04/07 02:53:14;;;;;;;10.93;6.03;;;;;;;9.43;54.35;98721.06;3148018;28;20518;-69
2022/04/07 02:54:45;;;;;;;12.60;5.30;;;;;;;9.44;54.41;98716.75;3147177;28;20048;-69
2022/04/07 02:56:17;;;;;;;9.68;5.38;;;;;;;9.41;54.34;98707.34;3150791;28;20083;-69
2022/04/07 02:57:50;;;;;;;10.88;6.05;;;;;;;9.45;54.23;98698.44;3155410;28;20411;-68
2022/04/07 02:59:22;;;;;;;12.20;6.05;;;;;;;9.44;54.41;98707.19;3153896;28;20513;-69
2022/04/07 03:00:54;;;;;;;12.48;5.85;;;;;;;9.40;54.33;98715.22;3157070;28;20240;-68
2022/04/07 03:02:26;;;;;;;11.35;5.97;;;;;;;9.24;54.11;98684.94;3157545;28;20165;-68
2022/04/07 03:03:59;;;;;;;9.45;5.18;;;;;;;9.47;54.17;98716.56;3157644;28;20051;-68
2022/04/07 03:05:30;;;;;;;12.05;6.15;;;;;;;9.46;54.25;98722.66;3155876;28;20048;-68
2022/04/07 03:07:02;;;;;;;12.57;6.75;;;;;;;9.48;54.22;98731.22;3157910;28;20101;-69
2022/04/07 03:08:34;;;;;;;10.68;6.28;;;;;;;9.28;54.16;98688.19;3150052;28;20067;-68
2022/04/07 03:10:07;;;;;;;10.48;5.90;;;;;;;9.51;54.06;98713.69;3150305;28;20044;-69
2022/04/07 03:11:39;;;;;;;11.98;5.82;;;;;;;9.45;53.95;98700.22;3155807;28;20051;-68
2022/04/07 03:13:12;;;;;;;9.95;6.20;;;;;;;9.46;54.10;98701.88;3145922;28;20048;-68
2022/04/07 03:14:44;;;;;;;11.55;5.88;;;;;;;9.52;53.91;98699.78;3157393;28;20048;-68
2022/04/07 03:16:16;;;;;;;9.38;5.38;;;;;;;9.51;53.98;98687.69;3157647;28;20437;-68
2022/04/07 03:17:48;;;;;;;12.80;6.30;;;;;;;9.45;54.06;98672.47;3153883;28;20450;-68
2022/04/07 03:19:21;;;;;;;13.27;5.82;;;;;;;9.45;54.34;98672.47;3145488;28;20063;-68
2022/04/07 03:20:53;;;;;;;12.43;5.78;;;;;;;9.48;54.10;98669.69;3147200;28;20058;-70
2022/04/07 03:22:25;;;;;;;13.25;5.93;;;;;;;9.49;54.05;98668.75;3151602;28;20429;-68
2022/04/07 03:23:57;;;;;;;14.15;6.00;;;;;;;9.54;54.00;98676.28;3157074;28;20058;-68
2022/04/07 03:25:29;;;;;;;10.30;5.80;;;;;;;9.49;53.83;98684.34;3149178;28;20047;-68
2022/04/07 03:27:04;;;;;;;12.52;5.95;;;;;;;9.55;53.95;98685.75;3156646;28;20113;-68
2022/04/07 03:28:37;;;;;;;10.00;5.60;;;;;;;9.61;53.92;98690.59;3153420;28;20060;-68
2022/04/07 03:30:11;;;;;;;17.02;6.88;;;;;;;9.63;53.86;98680.94;3157455;28;20052;-68
2022/04/07 03:31:43;;;;;;;14.43;6.07;;;;;;;9.61;53.96;98685.38;3153721;28;20048;-68
2022/04/07 03:33:14;;;;;;;12.30;5.97;;;;;;;9.63;53.62;98691.34;3156103;28;20135;-69
2022/04/07 03:34:46;;;;;;;11.30;6.35;;;;;;;9.61;53.92;98693.19;3155086;28;20060;-68
2022/04/07 03:36:18;;;;;;;11.77;6.10;;;;;;;9.67;53.83;98703.25;3153542;28;20056;-68
2022/04/07 03:37:50;;;;;;;11.45;5.80;;;;;;;9.69;53.89;98701.38;3154007;28;20207;-69
2022/04/07 03:39:22;;;;;;;11.77;6.15;;;;;;;9.71;53.78;98696.94;3145810;28;20064;-69
2022/04/07 03:40:54;;;;;;;9.23;5.63;;;;;;;9.73;53.86;98700.28;3156977;28;20104;-69
2022/04/07 03:42:26;;;;;;;14.35;6.78;;;;;;;9.74;53.79;98688.94;3155530;28;20485;-69
2022/04/07 03:44:00;;;;;;;12.82;6.15;;;;;;;9.75;53.92;98679.38;3146987;28;20270;-69
2022/04/07 03:45:31;;;;;;;;;;;;;;;9.55;53.88;98668.41;3149095;28;20048;-69
2022/04/07 03:47:04;;;;;;;14.52;5.93;;;;;;;9.65;54.11;98671.28;3156828;28;19924;-69
2022/04/07 03:48:35;;;;;;;14.27;6.63;;;;;;;9.67;53.89;98674.66;3149525;28;20441;-68
2022/04/07 03:50:08;;;;;;;11.63;7.38;;;;;;;9.67;53.92;98672.06;3154790;28;20055;-69
2022/04/07 03:51:40;;;;;;;15.65;7.28;;;;;;;9.66;53.88;98675.56;3157338;28;20048;-69
2022/04/07 03:53:12;;;;;;;12.07;6.82;;;;;;;9.72;53.96;98683.00;3153195;28;20048;-68
2022/04/07 03:54:44;;;;;;;14.70;7.50;;;;;;;9.72;53.83;98680.38;3156725;28;20074;-68
2022/04/07 03:56:16;;;;;;;12.73;6.47;;;;;;;9.73;53.86;98679.47;3154469;28;20560;-68
2022/04/07 03:57:48;;;;;;;17.80;6.93;;;;;;;9.73;53.92;98670.81;3157234;28;20744;-69
2022/04/07 03:59:21;;;;;;;11.15;6.78;;;;;;;9.73;53.87;98657.81;3151806;28;20109;-68
2022/04/07 04:00:54;;;;;;;11.80;6.30;;;;;;;9.70;54.04;98655.41;3155576;28;20101;-68
2022/04/07 04:02:26;;;;;;;20.85;6.70;;;;;;;9.66;53.81;98641.75;3155325;28;20043;-68
2022/04/07 04:03:56;;;;;;;12.98;6.82;;;;;;;9.68;54.02;98642.53;3151076;28;20507;-68
2022/04/07 04:05:28;;;;;;;13.45;6.28;;;;;;;9.69;53.99;98638.97;3147596;28;20136;-68
2022/04/07 04:07:00;;;;;;;14.98;6.80;;;;;;;9.65;53.71;98639.28;3151508;28;20056;-68
2022/04/07 04:08:32;;;;;;;12.65;6.75;;;;;;;9.68;53.90;98647.72;3149562;28;20052;-68
2022/04/07 04:10:05;;;;;;;14.93;7.35;;;;;;;9.61;53.74;98629.97;3152917;28;20059;-68
2022/04/07 04:11:37;;;;;;;12.17;6.90;;;;;;;9.71;53.78;98641.50;3155006;28;20048;-68
2022/04/07 04:13:09;;;;;;;17.42;7.18;;;;;;;9.70;53.73;98632.88;3149828;28;20314;-68
2022/04/07 04:14:42;;;;;;;15.07;6.53;;;;;;;9.57;53.92;98619.75;3145043;28;20045;-70
2022/04/07 04:16:17;;;;;;;15.50;6.88;;;;;;;9.62;53.98;98626.47;3148309;28;20116;-69
2022/04/07 04:17:49;;;;;;;13.25;7.15;;;;;;;9.60;53.99;98626.53;3144957;28;20153;-70
2022/04/07 04:19:20;;;;;;;14.65;7.85;;;;;;;9.65;53.94;98637.50;3155282;28;20483;-69
2022/04/07 04:20:52;;;;;;;14.75;7.15;;;;;;;9.67;53.91;98653.84;3157083;28;20044;-69
2022/04/07 04:22:24;;;;;;;16.17;8.13;;;;;;;9.70;53.96;98658.88;3152712;28;20048;-67
2022/04/07 04:23:56;;;;;;;22.10;8.45;;;;;;;9.69;54.02;98641.59;3156045;28;20048;-68
2022/04/07 04:25:28;;;;;;;22.75;8.73;;;;;;;9.70;53.99;98634.59;3156902;28;20047;-68
2022/04/07 04:27:00;;;;;;;20.15;9.40;;;;;;;9.66;54.02;98631.38;3152945;28;20048;-68
2022/04/07 04:28:32;;;;;;;29.25;9.82;;;;;;;9.69;54.00;98635.56;3156608;28;20401;-68
2022/04/07 04:30:07;;;;;;;19.73;9.65;;;;;;;9.70;54.14;98645.00;3150327;28;20054;-67
2022/04/07 04:31:39;;;;;;;26.58;9.60;;;;;;;9.70;54.11;98645.00;3146187;28;20075;-68
2022/04/07 04:33:11;;;;;;;23.63;9.70;;;;;;;9.70;54.08;98638.06;3149499;28;20048;-68
2022/04/07 04:34:43;;;;;;;23.33;9.23;;;;;;;9.75;54.05;98637.78;3156710;28;20079;-68
2022/04/07 04:36:15;;;;;;;15.15;8.60;;;;;;;9.80;53.91;98635.75;3156153;28;20104;-68
2022/04/07 04:37:47;;;;;;;16.63;8.32;;;;;;;9.79;53.92;98642.72;3150770;28;20079;-68
2022/04/07 04:39:19;;;;;;;14.77;8.82;;;;;;;9.83;53.81;98643.34;3152316;28;20052;-68
2022/04/07 04:40:51;;;;;;;17.55;8.82;;;;;;;9.89;53.71;98639.56;3149521;28;20118;-69
2022/04/07 04:42:22;;;;;;;16.20;9.18;;;;;;;9.95;53.63;98644.38;3149181;28;20439;-68
2022/04/07 04:43:54;;;;;;;22.90;8.93;;;;;;;9.96;53.49;98631.25;3156724;28;20109;-68
2022/04/07 04:45:28;;;;;;;32.72;16.27;;;;;;;10.10;53.36;98638.22;3155768;28;20461;-68
2022/04/07 04:46:59;;;;;;;;;;;;;;;9.99;53.36;98627.66;3149783;28;20422;-67
2022/04/07 04:48:32;;;;;;;20.90;9.75;;;;;;;10.11;53.58;98626.06;3156429;28;20338;-67
2022/04/07 04:50:05;;;;;;;20.92;10.05;;;;;;;10.23;53.27;98623.53;3153860;28;20414;-68
2022/04/07 04:51:37;;;;;;;19.27;8.55;;;;;;;10.32;52.85;98623.91;3145835;28;20143;-68
2022/04/07 04:53:09;;;;;;;19.35;9.43;;;;;;;10.39;52.84;98633.84;3156199;28;20096;-68
2022/04/07 04:54:41;;;;;;;18.25;8.95;;;;;;;10.41;52.54;98625.94;3149638;28;20053;-68
2022/04/07 04:56:13;;;;;;;16.10;8.37;;;;;;;10.59;52.38;98653.41;3147331;28;20056;-68
2022/04/07 04:57:45;;;;;;;18.08;8.60;;;;;;;10.69;52.22;98649.28;3154881;28;20414;-67
2022/04/07 04:59:17;;;;;;;13.40;8.02;;;;;;;10.70;51.94;98632.72;3148505;28;20579;-68
2022/04/07 05:00:50;;;;;;;18.17;8.85;;;;;;;10.88;51.75;98648.94;3149350;28;20530;-67
2022/04/07 05:02:21;;;;;;;19.95;8.55;;;;;;;11.00;51.30;98654.28;3153065;28;20165;-67
2022/04/07 05:03:53;;;;;;;23.20;8.63;;;;;;;11.11;51.32;98657.84;3148681;28;20113;-68
2022/04/07 05:05:25;;;;;;;19.65;8.15;;;;;;;11.13;51.06;98635.16;3151204;28;20125;-70
2022/04/07 05:06:57;;;;;;;18.13;8.82;;;;;;;11.34;51.01;98639.88;3154830;28;20112;-69
2022/04/07 05:08:29;;;;;;;19.77;8.18;;;;;;;11.43;50.42;98622.78;3144887;28;20056;-69
2022/04/07 05:10:01;;;;;;;21.38;9.73;;;;;;;11.47;50.54;98609.41;3149652;28;20088;-68
2022/04/07 05:11:34;;;;;;;24.30;10.15;;;;;;;11.55;50.24;98604.53;3144479;28;20441;-67
2022/04/07 05:13:06;;;;;;;28.55;10.73;;;;;;;11.60;50.00;98620.69;3151933;28;20056;-67
2022/04/07 05:14:38;;;;;;;37.63;10.07;;;;;;;11.67;49.80;98625.50;3154053;28;20052;-67
2022/04/07 05:16:15;;;;;;;35.85;10.18;;;;;;;11.75;49.97;98631.03;3149472;28;20467;-68
2022/04/07 05:17:49;;;;;;;31.17;11.60;;;;;;;11.82;49.97;98624.44;3155844;28;20058;-70
2022/04/07 05:19:21;;;;;;;31.48;11.68;;;;;;;11.95;49.70;98627.91;3148021;28;20174;-68
2022/04/07 05:20:53;;;;;;;27.33;11.45;;;;;;;12.02;49.02;98629.13;3156457;28;20539;-69
2022/04/07 05:22:24;;;;;;;23.52;10.20;;;;;;;12.03;49.01;98609.94;3151797;28;20052;-69
2022/04/07 05:23:56;;;;;;;22.50;10.35;;;;;;;12.16;48.99;98614.31;3147608;28;20128;-70
2022/04/07 05:25:28;;;;;;;23.25;10.15;;;;;;;12.18;48.82;98625.44;3156398;28;20051;-68
2022/04/07 05:27:00;;;;;;;20.80;9.70;;;;;;;12.18;48.75;98630.66;3149538;28;20105;-67
2022/04/07 05:28:32;;;;;;;19.70;9.50;;;;;;;12.00;48.69;98594.47;3151809;28;20109;-68
2022/04/07 05:30:05;;;;;;;20.65;8.40;;;;;;;12.14;48.83;98621.41;3151375;28;20045;-70
2022/04/07 05:31:38;;;;;;;25.00;9.60;;;;;;;12.11;48.58;98601.56;3152292;28;20136;-68
2022/04/07 05:33:11;;;;;;;28.63;11.73;;;;;;;12.05;48.71;98591.56;3145233;28;20052;-68
2022/04/07 05:34:44;;;;;;;23.42;10.82;;;;;;;12.08;48.79;98593.97;3146686;28;20084;-68
2022/04/07 05:36:16;;;;;;;27.45;9.98;;;;;;;12.11;48.80;98596.34;3146227;28;20052;-68
2022/04/07 05:37:49;;;;;;;20.67;9.57;;;;;;;12.13;48.53;98604.09;3140309;28;20129;-69
2022/04/07 05:39:21;;;;;;;16.05;8.50;;;;;;;12.15;48.43;98602.19;3146446;28;20525;-66
2022/04/07 05:40:53;;;;;;;18.42;9.13;;;;;;;12.16;48.73;98590.81;3145133;28;20574;-70
2022/04/07 05:42:25;;;;;;;21.27;8.85;;;;;;;12.13;48.61;98573.59;3144142;28;20122;-68
2022/04/07 05:43:57;;;;;;;25.42;10.07;;;;;;;12.17;49.21;98582.03;3145078;28;20048;-67
2022/04/07 05:45:30;;;;;;;24.05;9.65;;;;;;;12.16;49.16;98583.00;3122022;28;20053;-67
2022/04/07 05:47:04;;;;;;;22.83;9.50;;;;;;;12.13;49.60;98583.22;3120433;28;20065;-67
2022/04/07 05:48:36;;;;;;;17.23;9.93;;;;;;;12.12;50.28;98589.34;3115677;28;20683;-67
2022/04/07 05:50:10;;;;;;;20.35;9.93;;;;;;;11.99;50.35;98553.69;3117688;28;20772;-67
2022/04/07 05:51:42;;;;;;;23.63;10.55;;;;;;;12.15;50.51;98574.31;3110614;28;20117;-67
2022/04/07 05:53:14;;;;;;;22.15;8.98;;;;;;;12.23;50.31;98561.53;3115924;28;20045;-68
2022/04/07 05:54:47;;;;;;;19.02;9.23;;;;;;;12.28;50.03;98549.00;3110922;28;20162;-70
2022/04/07 05:56:19;;;;;;;25.02;9.30;;;;;;;12.37;49.53;98544.06;3110458;28;20148;-68
2022/04/07 05:57:51;;;;;;;21.08;10.27;;;;;;;12.40;49.25;98539.44;3119577;28;20053;-65
2022/04/07 05:59:23;;;;;;;16.05;9.30;;;;;;;12.41;49.35;98533.28;3120935;28;20106;-66
2022/04/07 06:00:58;;;;;;;21.05;9.63;;;;;;;12.42;48.89;98547.16;3121543;28;20057;-68
2022/04/07 06:02:31;;;;;;;23.15;9.25;;;;;;;12.38;48.99;98541.34;3121847;28;20906;-66
2022/04/07 06:04:03;;;;;;;21.88;11.07;;;;;;;12.37;48.96;98544.91;3122149;28;20052;-63
2022/04/07 06:05:36;;;;;;;28.70;11.23;;;;;;;12.41;49.13;98545.50;3117257;28;20054;-66
2022/04/07 06:07:08;;;;;;;36.83;11.15;;;;;;;12.51;48.67;98539.50;3111372;28;20511;-63
2022/04/07 06:08:41;;;;;;;22.97;10.77;;;;;;;12.63;48.21;98535.16;3121695;28;20148;-64
2022/04/07 06:10:13;;;;;;;22.27;9.52;;;;;;;12.78;47.85;98548.88;3121685;28;20106;-62
2022/04/07 06:11:52;;;;;;;31.98;9.50;;;;;;;12.77;47.73;98528.91;3120402;28;20482;-66
2022/04/07 06:13:23;;;;;;;19.45;9.95;;;;;;;12.97;47.45;98530.84;3123958;28;20663;-66
2022/04/07 06:14:55;;;;;;;19.45;8.93;;;;;;;13.19;46.75;98526.59;3117319;28;20446;-66
2022/04/07 06:16:33;;;;;;;14.88;8.48;;;;;;;13.46;46.32;98542.03;3124247;28;20886;-63
2022/04/07 06:18:07;;;;;;;18.88;9.18;;;;;;;13.70;45.65;98535.84;3118647;28;20085;-65
2022/04/07 06:19:40;;;;;;;15.82;9.25;;;;;;;13.91;44.79;98528.09;3118288;28;20596;-65
2022/04/07 06:21:12;;;;;;;19.80;9.02;;;;;;;14.05;44.39;98517.31;3118958;28;20581;-65
2022/04/07 06:22:46;;;;;;;23.63;9.82;;;;;;;14.22;44.20;98516.81;3123666;28;20498;-64
2022/04/07 06:24:18;;;;;;;15.40;8.80;;;;;;;14.32;43.92;98515.13;3123850;28;20099;-65
2022/04/07 06:25:50;;;;;;;19.98;9.50;;;;;;;14.37;43.97;98519.16;3125944;28;20547;-65
2022/04/07 06:27:23;;;;;;;24.10;11.05;;;;;;;14.38;43.44;98518.22;3117621;28;20064;-66
2022/04/07 06:28:55;;;;;;;16.58;9.68;;;;;;;14.27;43.70;98524.31;3121992;28;20057;-66
2022/04/07 06:30:28;;;;;;;17.48;9.25;;;;;;;14.18;43.67;98519.81;3111684;28;20159;-66
2022/04/07 06:32:00;;;;;;;16.80;8.52;;;;;;;14.07;43.45;98512.81;3122984;28;20053;-66
2022/04/07 06:33:34;;;;;;;15.05;8.77;;;;;;;14.10;43.70;98516.00;3122059;28;20478;-68
2022/04/07 06:35:08;;;;;;;19.60;9.13;;;;;;;14.15;43.48;98518.28;3122212;28;20178;-65
2022/04/07 06:36:41;;;;;;;16.08;8.63;;;;;;;14.26;43.16;98518.25;3122626;28;20049;-65
2022/04/07 06:38:13;;;;;;;15.27;9.00;;;;;;;14.58;42.95;98496.47;3121436;28;20049;-65
2022/04/07 06:39:46;;;;;;;17.80;9.43;;;;;;;15.18;42.36;98501.97;3123086;28;20372;-66
2022/04/07 06:41:18;;;;;;;18.52;9.93;;;;;;;15.89;41.39;98502.81;3120510;28;20839;-66
2022/04/07 06:42:51;;;;;;;23.30;10.68;;;;;;;16.72;40.25;98499.84;3124128;28;20049;-66
2022/04/07 06:44:24;;;;;;;;;;;;;;;17.42;40.07;98495.13;3130391;28;20074;-65
2022/04/07 06:45:56;;;;;;;20.05;9.23;;;;;;;18.33;38.32;98497.81;3146337;28;19923;-66
2022/04/07 06:47:28;;;;;;;17.85;9.27;;;;;;;19.13;36.76;98492.53;3147524;28;20685;-66
2022/04/07 06:51:02;;;;;;;20.70;9.15;;;;;;;20.20;34.09;98477.00;3142818;28;20056;-64
2022/04/07 06:52:34;;;;;;;16.60;9.88;;;;;;;20.35;33.40;98447.25;3152409;28;20125;-65
2022/04/07 06:54:06;;;;;;;20.45;9.40;;;;;;;20.87;32.88;98474.22;3150392;28;20564;-68
2022/04/07 06:55:39;;;;;;;13.32;8.40;;;;;;;21.11;32.37;98464.56;3150264;28;20051;-68
2022/04/07 06:57:11;;;;;;;14.43;8.53;;;;;;;21.46;31.51;98454.59;3151243;28;20052;-67
2022/04/07 06:58:43;;;;;;;14.98;9.50;;;;;;;21.99;30.81;98474.19;3152619;28;20048;-69
2022/04/07 07:00:17;;;;;;;16.35;8.98;;;;;;;22.28;30.12;98436.44;3150734;28;20056;-68
2022/04/07 07:01:49;;;;;;;16.77;8.88;;;;;;;23.04;29.35;98469.13;3144418;28;20113;-69
2022/04/07 07:03:22;;;;;;;15.13;8.93;;;;;;;23.52;28.86;98458.97;3145886;28;20052;-68
2022/04/07 07:04:55;;;;;;;13.15;9.52;;;;;;;24.02;28.28;98456.50;3151850;28;20068;-68
2022/04/07 07:06:27;;;;;;;;;;;;;;;24.24;28.71;98452.84;3151827;28;20280;-67
2022/04/07 07:08:11;;;;;;;12.23;8.00;;;;;;;24.43;27.76;98445.25;3151856;28;19924;-67
2022/04/07 07:09:43;;;;;;;10.85;8.02;;;;;;;24.55;27.22;98462.38;3151887;28;20091;-66
2022/04/07 07:11:15;;;;;;;13.95;8.40;;;;;;;24.61;26.93;98439.47;3151800;28;20444;-66
2022/04/07 07:12:47;;;;;;;15.23;8.57;;;;;;;24.78;26.13;98416.88;3152294;28;20056;-66
2022/04/07 07:14:19;;;;;;;12.48;7.55;;;;;;;25.30;26.15;98431.56;3151742;28;20488;-65
2022/04/07 07:15:52;;;;;;;11.35;8.27;;;;;;;25.73;25.23;98425.19;3152018;28;20056;-65